createdAt,value
2018-08-11T00:00:22.877Z,1.27
2018-08-11T00:02:51.757Z,1.17
2018-08-11T00:05:20.205Z,1.20
2018-08-11T00:07:49.312Z,1.25
2018-08-11T00:10:17.800Z,1.40
2018-08-11T00:12:46.637Z,1.32
2018-08-11T00:15:17.677Z,1.27
2018-08-11T00:17:46.301Z,1.32
2018-08-11T00:20:19.004Z,2.20
2018-08-11T00:22:47.520Z,2.30
2018-08-11T00:25:17.319Z,2.27
2018-08-11T00:27:45.874Z,1.90
2018-08-11T00:30:16.132Z,2.12
2018-08-11T00:32:44.634Z,1.35
2018-08-11T00:35:13.985Z,1.65
2018-08-11T00:37:43.198Z,1.80
2018-08-11T00:40:19.965Z,1.40
2018-08-11T00:42:49.490Z,1.45
2018-08-11T00:45:18.456Z,1.40
2018-08-11T00:47:47.691Z,1.30
2018-08-11T00:50:19.121Z,1.10
2018-08-11T00:52:47.297Z,1.50
2018-08-11T00:55:15.747Z,1.20
2018-08-11T00:57:44.277Z,1.30
2018-08-11T01:00:15.327Z,1.35
2018-08-11T01:02:48.166Z,1.40
2018-08-11T01:05:21.378Z,1.40
2018-08-11T01:07:50.555Z,1.20
2018-08-11T01:10:20.284Z,1.02
2018-08-11T01:12:49.169Z,1.27
2018-08-11T01:15:19.697Z,1.27
2018-08-11T01:17:48.651Z,1.30
2018-08-11T01:20:17.408Z,1.32
2018-08-11T01:22:46.291Z,1.12
2018-08-11T01:25:15.252Z,1.22
2018-08-11T01:27:43.877Z,1.27
2018-08-11T01:30:15.855Z,1.20
2018-08-11T01:32:44.300Z,1.10
2018-08-11T01:35:12.987Z,1.30
2018-08-11T01:37:42.394Z,1.07
2018-08-11T01:40:12.290Z,1.12
2018-08-11T01:42:41.925Z,1.22
2018-08-11T01:45:11.408Z,1.22
2018-08-11T01:47:40.427Z,1.20
2018-08-11T01:50:10.563Z,1.10
2018-08-11T01:52:40.134Z,1.12
2018-08-11T01:55:08.553Z,1.22
2018-08-11T01:57:37.009Z,1.40
2018-08-11T02:00:07.376Z,1.15
2018-08-11T02:02:36.261Z,0.95
2018-08-11T02:05:04.998Z,1.30
2018-08-11T02:07:33.517Z,1.00
2018-08-11T02:10:02.338Z,1.10
2018-08-11T02:12:30.801Z,1.10
2018-08-11T02:14:59.210Z,1.05
2018-08-11T02:17:27.676Z,1.00
2018-08-11T02:19:56.307Z,1.00
2018-08-11T02:22:25.146Z,1.10
2018-08-11T02:24:53.667Z,1.20
2018-08-11T02:27:22.101Z,1.10
2018-08-11T02:29:50.625Z,1.00
2018-08-11T02:32:19.067Z,1.00
2018-08-11T02:34:47.933Z,1.12
2018-08-11T02:37:16.388Z,1.27
2018-08-11T02:39:45.499Z,0.90
2018-08-11T02:42:13.968Z,1.12
2018-08-11T02:44:42.389Z,1.40
2018-08-11T02:47:11.120Z,0.95
2018-08-11T02:49:39.620Z,1.15
2018-08-11T02:52:08.053Z,0.90
2018-08-11T02:54:36.556Z,1.10
2018-08-11T02:57:06.000Z,0.98
2018-08-11T02:59:34.437Z,1.10
2018-08-11T03:02:03.583Z,1.10
2018-08-11T03:04:32.052Z,1.22
2018-08-11T03:07:00.524Z,1.30
2018-08-11T03:09:28.976Z,1.07
2018-08-11T03:11:57.460Z,1.20
2018-08-11T03:14:25.989Z,0.90
2018-08-11T03:16:54.444Z,1.10
2018-08-11T03:19:22.858Z,1.00
2018-08-11T03:21:51.316Z,1.00
2018-08-11T03:24:19.720Z,1.05
2018-08-11T03:26:48.764Z,0.90
2018-08-11T03:29:17.220Z,0.93
2018-08-11T03:31:45.690Z,0.95
2018-08-11T03:34:14.144Z,1.30
2018-08-11T03:36:42.560Z,1.10
2018-08-11T03:39:12.429Z,0.90
2018-08-11T03:41:41.526Z,1.10
2018-08-11T03:44:10.745Z,1.02
2018-08-11T03:46:39.161Z,0.98
2018-08-11T03:49:07.637Z,1.10
2018-08-11T03:51:36.112Z,1.15
2018-08-11T03:54:04.606Z,1.10
2018-08-11T03:56:33.036Z,1.25
2018-08-11T03:59:01.509Z,1.27
2018-08-11T04:01:30.638Z,1.07
2018-08-11T04:03:59.092Z,1.40
2018-08-11T04:06:27.585Z,1.22
2018-08-11T04:08:56.673Z,1.37
2018-08-11T04:11:25.136Z,1.50
2018-08-11T04:13:53.721Z,1.95
2018-08-11T04:16:22.139Z,2.40
2018-08-11T04:18:50.838Z,2.40
2018-08-11T04:21:19.297Z,2.35
2018-08-11T04:23:47.760Z,2.52
2018-08-11T04:26:16.247Z,2.90
2018-08-11T04:28:44.777Z,2.50
2018-08-11T04:31:13.269Z,2.50
2018-08-11T04:33:42.384Z,2.75
2018-08-11T04:36:10.823Z,3.10
2018-08-11T04:38:39.287Z,2.80
2018-08-11T04:41:07.764Z,3.10
2018-08-11T04:43:36.226Z,3.47
2018-08-11T04:46:04.682Z,3.35
2018-08-11T04:48:33.184Z,3.83
2018-08-11T04:51:01.644Z,3.67
2018-08-11T04:53:30.074Z,3.80
2018-08-11T04:55:58.525Z,3.50
2018-08-11T04:58:27.698Z,3.70
2018-08-11T05:00:56.221Z,3.77
2018-08-11T05:03:24.623Z,3.80
2018-08-11T05:05:53.396Z,3.80
2018-08-11T05:08:22.329Z,3.30
2018-08-11T05:10:51.000Z,3.58
2018-08-11T05:13:19.472Z,3.22
2018-08-11T05:15:47.962Z,3.17
2018-08-11T05:18:16.458Z,3.20
2018-08-11T05:20:44.893Z,3.42
2018-08-11T05:23:13.469Z,3.12
2018-08-11T05:25:42.120Z,3.77
2018-08-11T05:28:10.592Z,3.83
2018-08-11T05:30:38.994Z,3.60
2018-08-11T05:33:07.461Z,3.75
2018-08-11T05:35:36.068Z,3.10
2018-08-11T05:38:04.646Z,3.45
2018-08-11T05:40:33.089Z,3.70
2018-08-11T05:43:01.239Z,3.58
2018-08-11T05:45:29.697Z,3.60
2018-08-11T05:47:58.182Z,4.00
2018-08-11T05:50:26.607Z,4.00
2018-08-11T05:52:55.832Z,3.70
2018-08-11T05:55:24.306Z,3.90
2018-08-11T05:57:52.769Z,3.77
2018-08-11T06:00:21.218Z,3.40
2018-08-11T06:02:49.702Z,3.20
2018-08-11T06:05:18.833Z,2.35
2018-08-11T06:07:47.473Z,1.90
2018-08-11T06:10:15.923Z,1.70
2018-08-11T06:12:44.426Z,1.47
2018-08-11T06:15:12.975Z,1.45
2018-08-11T06:17:42.292Z,1.35
2018-08-11T06:20:11.012Z,1.37
2018-08-11T06:22:39.126Z,1.20
2018-08-11T06:25:09.185Z,1.20
2018-08-11T06:27:37.758Z,1.20
2018-08-11T06:30:07.533Z,1.20
2018-08-11T06:32:36.385Z,0.98
2018-08-11T06:35:05.731Z,1.00
2018-08-11T06:37:33.812Z,0.70
2018-08-11T06:40:02.278Z,0.80
2018-08-11T06:42:30.980Z,0.85
2018-08-11T06:44:59.396Z,0.78
2018-08-11T06:47:27.965Z,0.70
2018-08-11T06:49:56.510Z,0.80
2018-08-11T06:52:25.066Z,0.60
2018-08-11T06:54:53.505Z,0.60
2018-08-11T06:57:21.960Z,0.53
2018-08-11T06:59:50.474Z,1.02
2018-08-11T07:02:18.982Z,0.70
2018-08-11T07:04:47.400Z,0.80
2018-08-11T07:07:15.851Z,0.70
2018-08-11T07:09:44.288Z,0.57
2018-08-11T07:12:12.787Z,0.68
2018-08-11T07:14:41.811Z,0.50
2018-08-11T07:17:10.396Z,0.60
2018-08-11T07:19:38.812Z,0.60
2018-08-11T07:22:07.240Z,0.60
2018-08-11T07:24:35.697Z,0.60
2018-08-11T07:27:04.202Z,0.53
2018-08-11T07:29:33.260Z,0.60
2018-08-11T07:32:01.373Z,0.65
2018-08-11T07:34:29.855Z,0.80
2018-08-11T07:36:58.329Z,0.80
2018-08-11T07:39:27.290Z,0.50
2018-08-11T07:41:55.792Z,0.70
2018-08-11T07:44:24.229Z,0.60
2018-08-11T07:46:52.694Z,0.40
2018-08-11T07:49:21.216Z,0.68
2018-08-11T07:51:49.777Z,0.80
2018-08-11T07:54:18.231Z,0.70
2018-08-11T07:56:47.419Z,0.80
2018-08-11T07:59:15.847Z,0.80
2018-08-11T08:01:44.416Z,0.78
2018-08-11T08:04:12.829Z,0.80
2018-08-11T08:06:41.282Z,0.80
2018-08-11T08:09:12.096Z,0.95
2018-08-11T08:11:41.704Z,0.88
2018-08-11T08:14:10.893Z,1.00
2018-08-11T08:16:39.416Z,0.93
2018-08-11T08:19:08.052Z,1.10
2018-08-11T08:21:36.456Z,1.30
2018-08-11T08:24:05.003Z,1.57
2018-08-11T08:26:33.698Z,1.20
2018-08-11T08:29:01.964Z,1.20
2018-08-11T08:31:30.462Z,1.40
2018-08-11T08:33:59.137Z,1.30
2018-08-11T08:36:27.588Z,1.40
2018-08-11T08:38:56.324Z,1.20
2018-08-11T08:41:24.816Z,1.27
2018-08-11T08:43:53.300Z,1.70
2018-08-11T08:46:21.801Z,1.52
2018-08-11T08:48:50.348Z,1.60
2018-08-11T08:51:19.510Z,1.35
2018-08-11T08:53:47.955Z,1.37
2018-08-11T08:56:16.405Z,1.52
2018-08-11T08:58:44.972Z,1.50
2018-08-11T09:01:13.408Z,1.42
2018-08-11T09:03:41.957Z,1.47
2018-08-11T09:06:10.382Z,1.40
2018-08-11T09:08:38.831Z,1.45
2018-08-11T09:11:07.348Z,1.72
2018-08-11T09:13:35.835Z,2.10
2018-08-11T09:16:04.603Z,2.55
2018-08-11T09:18:33.309Z,1.60
2018-08-11T09:21:01.864Z,1.60
2018-08-11T09:23:30.344Z,1.87
2018-08-11T09:25:59.105Z,1.70
2018-08-11T09:28:27.556Z,1.70
2018-08-11T09:30:56.033Z,1.72
2018-08-11T09:33:24.135Z,1.80
2018-08-11T09:35:52.581Z,1.60
2018-08-11T09:38:21.104Z,1.40
2018-08-11T09:40:49.612Z,1.50
2018-08-11T09:43:17.771Z,2.15
2018-08-11T09:45:46.267Z,1.87
2018-08-11T09:48:15.509Z,1.72
2018-08-11T09:50:44.301Z,1.80
2018-08-11T09:53:12.433Z,1.60
2018-08-11T09:55:40.910Z,1.92
2018-08-11T09:58:09.417Z,1.80
2018-08-11T10:01:41.065Z,1.75
2018-08-11T10:04:09.793Z,2.95
2018-08-11T10:06:38.339Z,2.00
2018-08-11T10:09:08.913Z,2.20
2018-08-11T10:11:37.487Z,1.70
2018-08-11T10:14:06.605Z,2.10
2018-08-11T10:16:35.214Z,1.67
2018-08-11T10:19:03.686Z,1.70
2018-08-11T10:21:33.641Z,1.50
2018-08-11T10:24:02.568Z,1.62
2018-08-11T10:26:31.315Z,1.32
2018-08-11T10:28:59.497Z,1.50
2018-08-11T10:31:27.970Z,1.57
2018-08-11T10:33:56.412Z,1.50
2018-08-11T10:36:24.952Z,3.50
2018-08-11T10:38:53.521Z,1.90
2018-08-11T10:41:22.292Z,1.70
2018-08-11T10:43:50.730Z,1.98
2018-08-11T10:46:19.720Z,1.85
2018-08-11T10:48:48.213Z,1.80
2018-08-11T10:51:16.757Z,1.82
2018-08-11T10:53:45.260Z,1.70
2018-08-11T10:56:13.702Z,1.75
2018-08-11T10:58:42.973Z,2.20
2018-08-11T11:01:11.412Z,1.70
2018-08-11T11:03:40.136Z,1.65
2018-08-11T11:06:08.629Z,1.80
2018-08-11T11:08:37.091Z,1.98
2018-08-11T11:11:05.585Z,1.75
2018-08-11T11:13:34.043Z,1.70
2018-08-11T11:16:02.502Z,1.60
2018-08-11T11:18:31.167Z,1.67
2018-08-11T11:20:59.733Z,1.82
2018-08-11T11:23:29.146Z,2.10
2018-08-11T11:25:58.164Z,1.80
2018-08-11T11:28:26.689Z,1.75
2018-08-11T11:30:55.796Z,1.80
2018-08-11T11:33:24.996Z,1.40
2018-08-11T11:35:53.616Z,1.60
2018-08-11T11:38:22.061Z,1.30
2018-08-11T11:40:50.575Z,1.50
2018-08-11T11:43:19.037Z,1.67
2018-08-11T11:45:47.499Z,1.40
2018-08-11T11:48:16.752Z,1.37
2018-08-11T11:50:46.213Z,2.00
2018-08-11T11:53:14.385Z,1.50
2018-08-11T11:55:42.921Z,1.70
2018-08-11T11:58:11.421Z,1.50
2018-08-11T12:00:39.898Z,1.57
2018-08-11T12:03:08.293Z,1.40
2018-08-11T12:05:36.769Z,1.40
2018-08-11T12:08:05.409Z,1.22
2018-08-11T12:10:33.955Z,1.30
2018-08-11T12:13:02.506Z,1.10
2018-08-11T12:15:30.964Z,1.27
2018-08-11T12:17:59.910Z,1.22
2018-08-11T12:20:28.368Z,1.07
2018-08-11T12:22:56.821Z,1.17
2018-08-11T12:25:25.310Z,1.40
2018-08-11T12:27:53.774Z,1.20
2018-08-11T12:30:22.229Z,0.98
2018-08-11T12:32:50.844Z,1.00
2018-08-11T12:35:19.285Z,0.88
2018-08-11T12:37:52.492Z,1.10
2018-08-11T12:40:20.961Z,1.40
2018-08-11T12:42:49.435Z,1.35
2018-08-11T12:45:18.026Z,1.67
2018-08-11T12:47:46.776Z,1.20
2018-08-11T12:50:15.545Z,1.15
2018-08-11T12:52:44.030Z,1.00
2018-08-11T12:55:12.493Z,0.80
2018-08-11T12:57:41.040Z,0.90
2018-08-11T13:00:10.818Z,0.90
2018-08-11T13:02:39.323Z,0.85
2018-08-11T13:05:08.411Z,0.80
2018-08-11T13:07:37.091Z,0.90
2018-08-11T13:10:06.313Z,0.70
2018-08-11T13:12:34.777Z,1.45
2018-08-11T13:15:04.705Z,1.00
2018-08-11T13:17:33.200Z,1.00
2018-08-11T13:20:01.663Z,1.00
2018-08-11T13:22:30.161Z,0.85
2018-08-11T13:24:58.686Z,1.00
2018-08-11T13:27:27.400Z,1.00
2018-08-11T13:29:55.929Z,0.90
2018-08-11T13:32:25.056Z,0.90
2018-08-11T13:34:54.206Z,0.88
2018-08-11T13:37:22.745Z,1.00
2018-08-11T13:39:52.094Z,0.95
2018-08-11T13:42:21.212Z,0.98
2018-08-11T13:44:49.708Z,0.88
2018-08-11T13:47:18.201Z,1.15
2018-08-11T13:49:47.530Z,0.93
2018-08-11T13:52:16.020Z,0.88
2018-08-11T13:54:44.464Z,0.85
2018-08-11T13:57:13.541Z,0.85
2018-08-11T13:59:42.139Z,1.00
2018-08-11T14:02:10.749Z,1.15
2018-08-11T14:04:39.533Z,1.17
2018-08-11T14:07:08.029Z,0.98
2018-08-11T14:09:36.500Z,2.75
2018-08-11T14:12:05.005Z,1.22
2018-08-11T14:14:33.510Z,0.93
2018-08-11T14:17:02.693Z,0.80
2018-08-11T14:19:31.266Z,1.12
2018-08-11T14:21:59.880Z,1.30
2018-08-11T14:24:28.517Z,1.17
2018-08-11T14:26:56.986Z,0.88
2018-08-11T14:29:25.479Z,0.82
2018-08-11T14:31:53.930Z,0.88
2018-08-11T14:34:22.443Z,1.10
2018-08-11T14:36:50.884Z,0.80
2018-08-11T14:39:19.342Z,1.27
2018-08-11T14:41:47.793Z,0.90
2018-08-11T14:44:16.278Z,0.70
2018-08-11T14:46:45.473Z,0.88
2018-08-11T14:49:13.969Z,0.85
2018-08-11T14:51:42.500Z,0.80
2018-08-11T14:54:10.945Z,0.90
2018-08-11T14:56:39.712Z,0.93
2018-08-11T14:59:08.185Z,0.70
2018-08-11T15:01:36.645Z,0.80
2018-08-11T15:04:05.216Z,0.90
2018-08-11T15:06:33.703Z,0.85
2018-08-11T15:09:03.345Z,1.22
2018-08-11T15:11:31.791Z,0.80
2018-08-11T15:14:00.320Z,0.90
2018-08-11T15:16:28.465Z,0.90
2018-08-11T15:18:56.651Z,0.93
2018-08-11T15:21:25.106Z,0.90
2018-08-11T15:23:53.259Z,1.07
2018-08-11T15:26:21.700Z,1.00
2018-08-11T15:28:50.194Z,1.00
2018-08-11T15:31:18.740Z,1.02
2018-08-11T15:33:47.392Z,1.10
2018-08-11T15:36:15.925Z,1.20
2018-08-11T15:38:44.469Z,0.90
2018-08-11T15:41:12.932Z,1.00
2018-08-11T15:43:41.405Z,1.12
2018-08-11T15:46:09.898Z,1.00
2018-08-11T15:48:43.176Z,1.35
2018-08-11T15:51:12.065Z,1.00
2018-08-11T15:53:40.197Z,1.10
2018-08-11T15:56:08.355Z,1.20
2018-08-11T15:58:36.506Z,1.07
2018-08-11T16:01:05.061Z,0.90
2018-08-11T16:03:33.546Z,1.22
2018-08-11T16:06:01.999Z,1.10
2018-08-11T16:08:30.490Z,1.00
2018-08-11T16:10:58.927Z,1.10
2018-08-11T16:13:27.726Z,1.30
2018-08-11T16:15:56.204Z,0.88
2018-08-11T16:18:24.680Z,1.27
2018-08-11T16:20:53.137Z,1.00
2018-08-11T16:23:22.715Z,1.05
2018-08-11T16:25:51.909Z,0.90
2018-08-11T16:28:20.413Z,1.40
2018-08-11T16:30:48.879Z,1.30
2018-08-11T16:33:18.006Z,0.90
2018-08-11T16:35:46.484Z,1.00
2018-08-11T16:38:15.033Z,0.90
2018-08-11T16:40:43.508Z,1.02
2018-08-11T16:43:12.030Z,1.02
2018-08-11T16:45:40.540Z,0.95
2018-08-11T16:48:08.997Z,1.12
2018-08-11T16:50:37.466Z,0.90
2018-08-11T16:53:06.041Z,0.95
2018-08-11T16:55:34.483Z,0.82
2018-08-11T16:58:04.660Z,1.20
2018-08-11T17:00:33.138Z,1.30
2018-08-11T17:03:01.632Z,1.40
2018-08-11T17:05:30.054Z,1.42
2018-08-11T17:07:58.549Z,1.20
2018-08-11T17:10:26.709Z,1.62
2018-08-11T17:12:55.201Z,1.72
2018-08-11T17:15:23.331Z,1.32
2018-08-11T17:17:51.838Z,1.10
2018-08-11T17:20:20.640Z,1.20
2018-08-11T17:22:49.113Z,0.90
2018-08-11T17:25:17.584Z,1.10
2018-08-11T17:27:46.059Z,1.00
2018-08-11T17:30:14.545Z,1.47
2018-08-11T17:32:42.975Z,1.10
2018-08-11T17:35:12.025Z,1.30
2018-08-11T17:37:40.600Z,1.20
2018-08-11T17:40:09.706Z,1.20
2018-08-11T17:42:39.042Z,1.07
2018-08-11T17:47:40.218Z,1.42
2018-08-11T17:50:08.836Z,1.42
2018-08-11T17:52:37.294Z,1.20
2018-08-11T17:55:06.560Z,1.30
2018-08-11T17:57:34.697Z,0.90
2018-08-11T18:00:04.464Z,1.20
2018-08-11T18:02:32.921Z,1.87
2018-08-11T18:05:02.090Z,1.15
2018-08-11T18:07:30.593Z,1.00
2018-08-11T18:09:59.683Z,1.20
2018-08-11T18:12:28.161Z,1.30
2018-08-11T18:14:56.284Z,1.12
2018-08-11T18:17:29.143Z,1.00
2018-08-11T18:19:57.325Z,1.20
2018-08-11T18:22:25.877Z,1.30
2018-08-11T18:24:54.571Z,1.10
2018-08-11T18:27:23.049Z,1.10
2018-08-11T18:29:51.528Z,1.17
2018-08-11T18:32:19.755Z,1.10
2018-08-11T18:34:48.807Z,1.45
2018-08-11T18:37:17.392Z,1.10
2018-08-11T18:39:45.927Z,1.75
2018-08-11T18:42:14.353Z,1.20
2018-08-11T18:44:42.831Z,1.25
2018-08-11T18:48:32.437Z,1.17
2018-08-11T18:51:00.949Z,1.25
2018-08-11T18:53:36.317Z,1.20
2018-08-11T18:57:15.142Z,1.60
2018-08-11T18:59:43.633Z,1.85
2018-08-11T19:02:12.169Z,1.22
2018-08-11T19:04:40.695Z,1.05
2018-08-11T19:07:09.229Z,1.20
2018-08-11T19:09:37.757Z,1.15
2018-08-11T19:12:06.401Z,1.30
2018-08-11T19:14:34.887Z,1.47
2018-08-11T19:17:03.885Z,1.12
2018-08-11T19:19:32.393Z,1.30
2018-08-11T19:22:01.879Z,1.40
2018-08-11T19:24:30.361Z,1.20
2018-08-11T19:26:58.895Z,1.27
2018-08-11T19:29:27.430Z,1.20
2018-08-11T19:31:55.910Z,1.40
2018-08-11T19:34:25.042Z,1.30
2018-08-11T19:36:53.492Z,1.30
2018-08-11T19:39:21.993Z,1.10
2018-08-11T19:41:50.499Z,1.30
2018-08-11T19:44:19.009Z,1.30
2018-08-11T19:46:47.536Z,1.85
2018-08-11T19:49:16.200Z,1.45
2018-08-11T19:51:44.713Z,1.35
2018-08-11T19:54:13.233Z,1.30
2018-08-11T19:56:41.830Z,1.35
2018-08-11T19:59:10.387Z,3.75
2018-08-11T20:01:38.973Z,1.62
2018-08-11T20:04:07.449Z,1.30
2018-08-11T20:06:36.004Z,1.30
2018-08-11T20:09:06.438Z,1.17
2018-08-11T20:11:34.901Z,1.05
2018-08-11T20:14:03.608Z,1.37
2018-08-11T20:16:36.541Z,1.55
2018-08-11T20:19:06.055Z,1.70
2018-08-11T20:21:34.908Z,2.40
2018-08-11T20:24:08.028Z,4.35
2018-08-11T20:26:37.293Z,1.30
2018-08-11T20:29:05.859Z,1.40
2018-08-11T20:31:34.956Z,1.50
2018-08-11T20:34:03.489Z,1.32
2018-08-11T20:36:32.240Z,1.35
2018-08-11T20:39:00.782Z,1.50
2018-08-11T20:41:29.306Z,1.55
2018-08-11T20:43:59.522Z,1.60
2018-08-11T20:46:28.079Z,1.82
2018-08-11T20:48:56.638Z,1.20
2018-08-11T20:51:25.157Z,1.70
2018-08-11T20:53:53.854Z,1.65
2018-08-11T20:56:22.901Z,2.15
2018-08-11T20:58:51.376Z,1.80
2018-08-11T21:01:19.918Z,1.85
2018-08-11T21:03:48.433Z,2.15
2018-08-11T21:06:17.739Z,2.02
2018-08-11T21:08:46.229Z,1.70
2018-08-11T21:11:21.778Z,1.62
2018-08-11T21:13:50.380Z,2.08
2018-08-11T21:16:18.889Z,1.70
2018-08-11T21:18:52.112Z,1.67
2018-08-11T21:21:20.558Z,1.60
2018-08-11T21:23:49.209Z,1.60
2018-08-11T21:26:17.837Z,1.80
2018-08-11T21:28:47.002Z,1.70
2018-08-11T21:31:15.601Z,1.70
2018-08-11T21:33:44.592Z,1.60
2018-08-11T21:36:15.330Z,1.42
2018-08-11T21:38:43.882Z,1.72
2018-08-11T21:41:12.335Z,1.70
2018-08-11T21:43:40.888Z,2.35
2018-08-11T21:46:09.592Z,1.95
2018-08-11T21:48:38.780Z,4.55
2018-08-11T21:51:11.430Z,1.90
2018-08-11T21:53:39.877Z,1.90
2018-08-11T21:56:08.405Z,1.90
2018-08-11T21:58:37.850Z,1.77
2018-08-11T22:01:10.792Z,2.00
2018-08-11T22:03:40.888Z,1.80
2018-08-11T22:06:09.561Z,1.98
2018-08-11T22:08:38.117Z,1.85
2018-08-11T22:11:08.097Z,1.80
2018-08-11T22:13:36.610Z,1.95
2018-08-11T22:16:14.485Z,4.00
2018-08-11T22:18:43.522Z,1.95
2018-08-11T22:21:12.729Z,2.10
2018-08-11T22:23:41.560Z,2.05
2018-08-11T22:26:10.378Z,1.90
2018-08-11T22:28:42.908Z,2.08
2018-08-11T22:31:11.337Z,1.77
2018-08-11T22:33:40.071Z,2.22
2018-08-11T22:36:08.553Z,1.98
2018-08-11T22:38:37.076Z,2.52
2018-08-11T22:41:05.741Z,5.30
2018-08-11T22:43:34.153Z,3.22
2018-08-11T22:46:02.645Z,2.00
2018-08-11T22:48:31.125Z,2.40
2018-08-11T22:50:59.692Z,2.40
2018-08-11T22:53:29.160Z,2.22
2018-08-11T22:55:57.667Z,2.12
2018-08-11T22:58:26.758Z,1.87
2018-08-11T23:00:55.897Z,2.20
2018-08-11T23:03:24.397Z,2.15
2018-08-11T23:05:53.100Z,2.00
2018-08-11T23:08:23.020Z,2.12
2018-08-11T23:10:51.509Z,1.90
2018-08-11T23:13:20.002Z,1.75
2018-08-11T23:15:48.432Z,2.10
2018-08-11T23:18:17.001Z,1.92
2018-08-11T23:20:45.501Z,1.98
2018-08-11T23:23:14.000Z,2.02
2018-08-11T23:25:42.421Z,2.20
2018-08-11T23:28:10.961Z,2.08
2018-08-11T23:30:39.475Z,2.20
2018-08-11T23:33:08.055Z,2.10
2018-08-11T23:35:36.544Z,2.40
2018-08-11T23:38:05.068Z,2.45
2018-08-11T23:40:33.740Z,2.55
2018-08-11T23:43:02.249Z,2.42
2018-08-11T23:45:30.842Z,2.42
2018-08-11T23:47:59.281Z,2.20
2018-08-11T23:50:27.814Z,2.30
2018-08-11T23:52:56.316Z,2.20
2018-08-11T23:55:29.560Z,2.20
2018-08-11T23:57:58.052Z,2.37
